This is the latest recevied weather packets stored in our database for station/object E7HQ-1. If no packets are shown the sender has not sent any weather packets the latest 10 day(s).
| Time | Temp. | Humidity | Pressure | Rain* | Wind** | Luminosity | Snow |
|---|---|---|---|---|---|---|---|
| 1777345908 | 12.78° C | 45% | 1027.9 hPa | - | - | - | - |
| 1777345008 | 12.78° C | 44% | 1027.9 hPa | - | - | - | - |
| 1777344108 | 12.78° C | 44% | 1028.1 hPa | - | - | - | - |
| 1777343208 | 12.78° C | 45% | 1028.2 hPa | - | - | - | - |
| 1777342307 | 12.78° C | 45% | 1028.2 hPa | - | - | - | - |
| 1777341407 | 12.78° C | 44% | 1028.3 hPa | - | - | - | - |
| 1777340507 | 12.78° C | 45% | 1028.3 hPa | - | - | - | - |
| 1777338707 | 13.33° C | 43% | 1028.4 hPa | - | - | - | - |
| 1777337806 | 13.89° C | 42% | 1028.3 hPa | - | - | - | - |
| 1777329708 | 13.89° C | 42% | 1028.8 hPa | - | - | - | - |
| 1777328808 | 13.89° C | 42% | 1028.8 hPa | - | - | - | - |
| 1777313512 | 15° C | 42% | 1028.5 hPa | - | - | - | - |
| 1777312609 | 15.56° C | 41% | 1028.4 hPa | - | - | - | - |
| 1777310812 | 15.56° C | 41% | 1028.1 hPa | - | - | - | - |
| 1777309909 | 16.11° C | 41% | 1028 hPa | - | - | - | - |
| 1777307209 | 17.78° C | 38% | 1027.8 hPa | - | - | - | - |
| 1777306308 | 17.78° C | 37% | 1027.9 hPa | - | - | - | - |
| 1777305407 | 18.33° C | 35% | 1027.9 hPa | - | - | - | - |
| 1777304509 | 18.89° C | 34% | 1027.9 hPa | - | - | - | - |
| 1777300006 | 20.56° C | 31% | 1028 hPa | - | - | - | - |
| 1777299106 | 20.56° C | 29% | 1028.1 hPa | - | - | - | - |
| 1777295505 | 22.22° C | 26% | 1028.5 hPa | - | - | - | - |
| 1777292804 | 22.78° C | 28% | 1029 hPa | - | - | - | - |
| 1777289382 | 23.33° C | 23% | 1029.5 hPa | - | - | - | - |
| 1777288482 | 23.89° C | 22% | 1029.6 hPa | - | - | - | - |
* Rain since midnight (hover to see other rain measurements)
** Current wind speed in m/s (hover to see current wind gust speed)